sensor_id;sensor_type;location;lat;lon;timestamp;temperature;humidity
4985;DHT22;2509;49.902;8.600;2022-10-15T00:00:12;14.50;99.90
4985;DHT22;2509;49.902;8.600;2022-10-15T00:03:15;14.50;99.90
4985;DHT22;2509;49.902;8.600;2022-10-15T00:06:18;14.50;99.90
4985;DHT22;2509;49.902;8.600;2022-10-15T00:09:20;14.50;99.90
4985;DHT22;2509;49.902;8.600;2022-10-15T00:12:23;14.50;99.90
4985;DHT22;2509;49.902;8.600;2022-10-15T00:15:25;14.50;99.90
4985;DHT22;2509;49.902;8.600;2022-10-15T00:18:28;14.50;99.90
4985;DHT22;2509;49.902;8.600;2022-10-15T00:21:30;14.60;99.90
4985;DHT22;2509;49.902;8.600;2022-10-15T00:24:31;14.50;99.90
4985;DHT22;2509;49.902;8.600;2022-10-15T00:27:34;14.60;99.90
4985;DHT22;2509;49.902;8.600;2022-10-15T00:30:36;14.50;99.90
4985;DHT22;2509;49.902;8.600;2022-10-15T00:33:40;14.60;99.90
4985;DHT22;2509;49.902;8.600;2022-10-15T00:36:41;14.60;99.90
4985;DHT22;2509;49.902;8.600;2022-10-15T00:39:43;14.60;99.90
4985;DHT22;2509;49.902;8.600;2022-10-15T00:42:45;14.60;99.90
4985;DHT22;2509;49.902;8.600;2022-10-15T00:45:47;14.60;99.90
4985;DHT22;2509;49.902;8.600;2022-10-15T00:48:53;14.60;99.90
4985;DHT22;2509;49.902;8.600;2022-10-15T00:51:59;14.60;99.90
4985;DHT22;2509;49.902;8.600;2022-10-15T00:55:05;14.60;99.90
4985;DHT22;2509;49.902;8.600;2022-10-15T00:58:10;14.60;99.90
4985;DHT22;2509;49.902;8.600;2022-10-15T01:01:13;14.60;99.90
4985;DHT22;2509;49.902;8.600;2022-10-15T01:04:16;14.60;99.90
4985;DHT22;2509;49.902;8.600;2022-10-15T01:07:18;14.60;99.90
4985;DHT22;2509;49.902;8.600;2022-10-15T01:10:21;14.60;99.90
4985;DHT22;2509;49.902;8.600;2022-10-15T01:13:34;14.60;99.90
4985;DHT22;2509;49.902;8.600;2022-10-15T01:16:43;14.70;99.90
4985;DHT22;2509;49.902;8.600;2022-10-15T01:24:00;14.70;99.90
4985;DHT22;2509;49.902;8.600;2022-10-15T01:27:21;14.70;99.90
4985;DHT22;2509;49.902;8.600;2022-10-15T01:30:30;14.70;99.90
4985;DHT22;2509;49.902;8.600;2022-10-15T01:33:40;14.70;99.90
4985;DHT22;2509;49.902;8.600;2022-10-15T01:36:49;14.70;99.90
4985;DHT22;2509;49.902;8.600;2022-10-15T01:39:55;14.70;99.90
4985;DHT22;2509;49.902;8.600;2022-10-15T01:42:58;14.70;99.90
4985;DHT22;2509;49.902;8.600;2022-10-15T01:46:05;14.70;99.90
4985;DHT22;2509;49.902;8.600;2022-10-15T01:49:11;14.70;99.90
4985;DHT22;2509;49.902;8.600;2022-10-15T01:52:17;14.70;99.90
4985;DHT22;2509;49.902;8.600;2022-10-15T01:55:21;14.70;99.90
4985;DHT22;2509;49.902;8.600;2022-10-15T01:58:25;14.70;99.90
4985;DHT22;2509;49.902;8.600;2022-10-15T02:01:29;14.70;99.90
4985;DHT22;2509;49.902;8.600;2022-10-15T02:04:31;14.70;99.90
4985;DHT22;2509;49.902;8.600;2022-10-15T02:07:43;14.70;99.90
4985;DHT22;2509;49.902;8.600;2022-10-15T02:10:52;14.70;99.90
4985;DHT22;2509;49.902;8.600;2022-10-15T02:13:59;14.70;99.90
4985;DHT22;2509;49.902;8.600;2022-10-15T02:17:07;14.70;99.90
4985;DHT22;2509;49.902;8.600;2022-10-15T02:20:13;14.70;99.90
4985;DHT22;2509;49.902;8.600;2022-10-15T02:23:20;14.80;99.90
4985;DHT22;2509;49.902;8.600;2022-10-15T02:26:24;14.80;99.90
4985;DHT22;2509;49.902;8.600;2022-10-15T02:29:32;14.80;99.90
4985;DHT22;2509;49.902;8.600;2022-10-15T02:32:37;14.80;99.90
4985;DHT22;2509;49.902;8.600;2022-10-15T02:35:42;14.80;99.90
4985;DHT22;2509;49.902;8.600;2022-10-15T02:38:45;14.80;99.90
4985;DHT22;2509;49.902;8.600;2022-10-15T02:41:47;14.80;99.90
4985;DHT22;2509;49.902;8.600;2022-10-15T02:44:49;14.80;99.90
4985;DHT22;2509;49.902;8.600;2022-10-15T02:47:52;14.80;99.90
4985;DHT22;2509;49.902;8.600;2022-10-15T02:50:54;14.80;99.90
4985;DHT22;2509;49.902;8.600;2022-10-15T02:53:56;14.80;99.90
4985;DHT22;2509;49.902;8.600;2022-10-15T02:56:58;14.80;99.90
4985;DHT22;2509;49.902;8.600;2022-10-15T03:00:00;14.80;99.90
4985;DHT22;2509;49.902;8.600;2022-10-15T03:03:03;14.80;99.90
4985;DHT22;2509;49.902;8.600;2022-10-15T03:06:05;14.80;99.90
4985;DHT22;2509;49.902;8.600;2022-10-15T03:09:07;14.80;99.90
4985;DHT22;2509;49.902;8.600;2022-10-15T03:12:09;14.80;99.90
4985;DHT22;2509;49.902;8.600;2022-10-15T03:15:11;14.80;99.90
4985;DHT22;2509;49.902;8.600;2022-10-15T03:18:14;14.80;99.90
4985;DHT22;2509;49.902;8.600;2022-10-15T03:21:16;14.80;99.90
4985;DHT22;2509;49.902;8.600;2022-10-15T03:24:17;14.80;99.90
4985;DHT22;2509;49.902;8.600;2022-10-15T03:27:19;14.90;99.90
4985;DHT22;2509;49.902;8.600;2022-10-15T03:30:21;14.90;99.90
4985;DHT22;2509;49.902;8.600;2022-10-15T03:33:24;14.90;99.90
4985;DHT22;2509;49.902;8.600;2022-10-15T03:36:26;14.90;99.90
4985;DHT22;2509;49.902;8.600;2022-10-15T03:39:28;14.90;99.90
4985;DHT22;2509;49.902;8.600;2022-10-15T03:42:29;14.90;99.90
4985;DHT22;2509;49.902;8.600;2022-10-15T03:45:31;14.80;99.90
4985;DHT22;2509;49.902;8.600;2022-10-15T03:48:34;14.80;99.90
4985;DHT22;2509;49.902;8.600;2022-10-15T03:51:36;14.90;99.90
4985;DHT22;2509;49.902;8.600;2022-10-15T03:54:38;14.90;99.90
4985;DHT22;2509;49.902;8.600;2022-10-15T03:57:40;14.90;99.90
4985;DHT22;2509;49.902;8.600;2022-10-15T04:00:42;14.90;99.90
4985;DHT22;2509;49.902;8.600;2022-10-15T04:03:45;14.90;99.90
4985;DHT22;2509;49.902;8.600;2022-10-15T04:06:47;14.90;99.90
4985;DHT22;2509;49.902;8.600;2022-10-15T04:09:49;14.90;99.90
4985;DHT22;2509;49.902;8.600;2022-10-15T04:12:51;14.90;99.90
4985;DHT22;2509;49.902;8.600;2022-10-15T04:15:52;14.90;99.90
4985;DHT22;2509;49.902;8.600;2022-10-15T04:18:56;14.90;99.90
4985;DHT22;2509;49.902;8.600;2022-10-15T04:21:58;14.90;99.90
4985;DHT22;2509;49.902;8.600;2022-10-15T04:25:00;14.90;99.90
4985;DHT22;2509;49.902;8.600;2022-10-15T04:28:01;14.90;99.90
4985;DHT22;2509;49.902;8.600;2022-10-15T04:31:03;14.90;99.90
4985;DHT22;2509;49.902;8.600;2022-10-15T04:34:07;14.90;99.90
4985;DHT22;2509;49.902;8.600;2022-10-15T04:37:09;14.90;99.90
4985;DHT22;2509;49.902;8.600;2022-10-15T04:40:11;14.90;99.90
4985;DHT22;2509;49.902;8.600;2022-10-15T04:43:13;14.90;99.90
4985;DHT22;2509;49.902;8.600;2022-10-15T04:46:15;14.90;99.90
4985;DHT22;2509;49.902;8.600;2022-10-15T04:49:18;14.90;99.90
4985;DHT22;2509;49.902;8.600;2022-10-15T04:52:20;14.90;99.90
4985;DHT22;2509;49.902;8.600;2022-10-15T04:55:22;14.90;99.90
4985;DHT22;2509;49.902;8.600;2022-10-15T04:58:24;14.90;99.90
4985;DHT22;2509;49.902;8.600;2022-10-15T05:01:25;14.90;99.90
4985;DHT22;2509;49.902;8.600;2022-10-15T05:04:29;14.90;99.90
4985;DHT22;2509;49.902;8.600;2022-10-15T05:07:30;14.90;99.90
4985;DHT22;2509;49.902;8.600;2022-10-15T05:10:32;14.80;99.90
4985;DHT22;2509;49.902;8.600;2022-10-15T05:13:34;14.80;99.90
4985;DHT22;2509;49.902;8.600;2022-10-15T05:16:36;14.80;99.90
4985;DHT22;2509;49.902;8.600;2022-10-15T05:19:39;14.80;99.90
4985;DHT22;2509;49.902;8.600;2022-10-15T05:22:41;14.80;99.90
4985;DHT22;2509;49.902;8.600;2022-10-15T05:25:42;14.80;99.90
4985;DHT22;2509;49.902;8.600;2022-10-15T05:28:44;14.80;99.90
4985;DHT22;2509;49.902;8.600;2022-10-15T05:31:49;14.80;99.90
4985;DHT22;2509;49.902;8.600;2022-10-15T05:34:52;14.80;99.90
4985;DHT22;2509;49.902;8.600;2022-10-15T05:41:33;14.80;99.90
4985;DHT22;2509;49.902;8.600;2022-10-15T05:44:51;14.70;99.90
4985;DHT22;2509;49.902;8.600;2022-10-15T05:47:53;14.70;99.90
4985;DHT22;2509;49.902;8.600;2022-10-15T05:51:00;14.70;99.90
4985;DHT22;2509;49.902;8.600;2022-10-15T05:54:02;14.70;99.90
4985;DHT22;2509;49.902;8.600;2022-10-15T05:57:04;14.70;99.90
4985;DHT22;2509;49.902;8.600;2022-10-15T06:00:07;14.70;99.90
4985;DHT22;2509;49.902;8.600;2022-10-15T06:03:11;14.70;99.90
4985;DHT22;2509;49.902;8.600;2022-10-15T06:06:17;14.70;99.90
4985;DHT22;2509;49.902;8.600;2022-10-15T06:09:19;14.70;99.90
4985;DHT22;2509;49.902;8.600;2022-10-15T06:12:21;14.80;99.90
4985;DHT22;2509;49.902;8.600;2022-10-15T06:15:22;14.70;99.90
4985;DHT22;2509;49.902;8.600;2022-10-15T06:18:24;14.80;99.90
4985;DHT22;2509;49.902;8.600;2022-10-15T06:21:27;14.80;99.90
4985;DHT22;2509;49.902;8.600;2022-10-15T06:24:29;14.80;99.90
4985;DHT22;2509;49.902;8.600;2022-10-15T06:27:31;14.80;99.90
4985;DHT22;2509;49.902;8.600;2022-10-15T06:30:33;14.80;99.90
4985;DHT22;2509;49.902;8.600;2022-10-15T06:33:35;14.80;99.90
4985;DHT22;2509;49.902;8.600;2022-10-15T06:36:38;14.80;99.90
4985;DHT22;2509;49.902;8.600;2022-10-15T06:39:40;14.80;99.90
4985;DHT22;2509;49.902;8.600;2022-10-15T06:42:41;14.80;99.90
4985;DHT22;2509;49.902;8.600;2022-10-15T06:45:43;14.80;99.90
4985;DHT22;2509;49.902;8.600;2022-10-15T06:48:45;14.90;99.90
4985;DHT22;2509;49.902;8.600;2022-10-15T06:51:48;14.90;99.90
4985;DHT22;2509;49.902;8.600;2022-10-15T06:54:50;14.90;99.90
4985;DHT22;2509;49.902;8.600;2022-10-15T06:57:51;14.90;99.90
4985;DHT22;2509;49.902;8.600;2022-10-15T07:00:58;14.90;99.90
4985;DHT22;2509;49.902;8.600;2022-10-15T07:04:00;14.90;99.90
4985;DHT22;2509;49.902;8.600;2022-10-15T07:07:03;14.90;99.90
4985;DHT22;2509;49.902;8.600;2022-10-15T07:10:05;14.90;99.90
4985;DHT22;2509;49.902;8.600;2022-10-15T07:13:08;14.90;99.90
4985;DHT22;2509;49.902;8.600;2022-10-15T07:16:11;14.90;99.90
4985;DHT22;2509;49.902;8.600;2022-10-15T07:19:13;15.00;99.90
4985;DHT22;2509;49.902;8.600;2022-10-15T07:22:16;15.00;99.90
4985;DHT22;2509;49.902;8.600;2022-10-15T07:25:17;15.00;99.90
4985;DHT22;2509;49.902;8.600;2022-10-15T07:28:19;15.00;99.90
4985;DHT22;2509;49.902;8.600;2022-10-15T07:31:21;15.10;99.90
4985;DHT22;2509;49.902;8.600;2022-10-15T07:34:23;15.10;99.90
4985;DHT22;2509;49.902;8.600;2022-10-15T07:37:26;15.10;99.90
4985;DHT22;2509;49.902;8.600;2022-10-15T07:40:28;15.20;99.90
4985;DHT22;2509;49.902;8.600;2022-10-15T07:43:29;15.20;99.90
4985;DHT22;2509;49.902;8.600;2022-10-15T07:46:31;15.30;99.90
4985;DHT22;2509;49.902;8.600;2022-10-15T07:49:33;15.30;99.90
4985;DHT22;2509;49.902;8.600;2022-10-15T07:52:36;15.40;99.90
4985;DHT22;2509;49.902;8.600;2022-10-15T07:55:38;15.50;99.90
4985;DHT22;2509;49.902;8.600;2022-10-15T07:58:39;15.50;99.90
4985;DHT22;2509;49.902;8.600;2022-10-15T08:01:42;15.50;99.90
4985;DHT22;2509;49.902;8.600;2022-10-15T08:04:44;15.50;99.90
4985;DHT22;2509;49.902;8.600;2022-10-15T08:07:47;15.50;99.90
4985;DHT22;2509;49.902;8.600;2022-10-15T08:10:48;15.60;99.90
4985;DHT22;2509;49.902;8.600;2022-10-15T08:13:51;15.70;99.90
4985;DHT22;2509;49.902;8.600;2022-10-15T08:16:53;15.80;99.90
4985;DHT22;2509;49.902;8.600;2022-10-15T08:19:55;16.00;99.90
4985;DHT22;2509;49.902;8.600;2022-10-15T08:22:58;15.90;99.90
4985;DHT22;2509;49.902;8.600;2022-10-15T08:26:00;16.00;99.90
4985;DHT22;2509;49.902;8.600;2022-10-15T08:29:01;16.00;99.90
4985;DHT22;2509;49.902;8.600;2022-10-15T08:32:03;16.00;99.90
4985;DHT22;2509;49.902;8.600;2022-10-15T08:35:06;16.00;99.90
4985;DHT22;2509;49.902;8.600;2022-10-15T08:38:09;16.10;99.90
4985;DHT22;2509;49.902;8.600;2022-10-15T08:41:18;16.10;99.90
4985;DHT22;2509;49.902;8.600;2022-10-15T08:44:24;16.10;99.90
4985;DHT22;2509;49.902;8.600;2022-10-15T08:47:31;16.20;99.90
4985;DHT22;2509;49.902;8.600;2022-10-15T08:50:39;16.20;99.90
4985;DHT22;2509;49.902;8.600;2022-10-15T08:53:46;16.10;99.90
4985;DHT22;2509;49.902;8.600;2022-10-15T08:56:53;16.10;99.90
4985;DHT22;2509;49.902;8.600;2022-10-15T09:00:04;16.10;99.90
4985;DHT22;2509;49.902;8.600;2022-10-15T09:03:24;16.10;99.90
4985;DHT22;2509;49.902;8.600;2022-10-15T09:06:29;16.10;99.90
4985;DHT22;2509;49.902;8.600;2022-10-15T09:09:39;16.10;99.90
4985;DHT22;2509;49.902;8.600;2022-10-15T09:12:49;16.10;99.90
4985;DHT22;2509;49.902;8.600;2022-10-15T09:15:57;16.00;99.90
4985;DHT22;2509;49.902;8.600;2022-10-15T09:19:01;16.00;99.90
4985;DHT22;2509;49.902;8.600;2022-10-15T09:22:05;16.00;99.90
4985;DHT22;2509;49.902;8.600;2022-10-15T09:25:16;16.00;99.90
4985;DHT22;2509;49.902;8.600;2022-10-15T09:28:20;16.00;99.90
4985;DHT22;2509;49.902;8.600;2022-10-15T09:31:29;16.10;99.90
4985;DHT22;2509;49.902;8.600;2022-10-15T09:34:38;16.10;99.90
4985;DHT22;2509;49.902;8.600;2022-10-15T09:37:48;16.20;99.90
4985;DHT22;2509;49.902;8.600;2022-10-15T09:41:03;16.20;99.90
4985;DHT22;2509;49.902;8.600;2022-10-15T09:44:15;16.20;99.90
4985;DHT22;2509;49.902;8.600;2022-10-15T09:47:22;16.20;99.90
4985;DHT22;2509;49.902;8.600;2022-10-15T09:50:27;16.30;99.90
4985;DHT22;2509;49.902;8.600;2022-10-15T09:53:42;16.40;99.90
4985;DHT22;2509;49.902;8.600;2022-10-15T09:56:51;16.50;99.90
4985;DHT22;2509;49.902;8.600;2022-10-15T09:59:55;16.50;99.90
4985;DHT22;2509;49.902;8.600;2022-10-15T10:03:03;16.50;99.90
4985;DHT22;2509;49.902;8.600;2022-10-15T10:06:08;16.50;99.90
4985;DHT22;2509;49.902;8.600;2022-10-15T10:09:16;16.40;99.90
4985;DHT22;2509;49.902;8.600;2022-10-15T10:12:24;16.40;99.90
4985;DHT22;2509;49.902;8.600;2022-10-15T10:15:31;16.40;99.90
4985;DHT22;2509;49.902;8.600;2022-10-15T10:18:33;16.40;99.90
4985;DHT22;2509;49.902;8.600;2022-10-15T10:21:37;16.40;99.90
4985;DHT22;2509;49.902;8.600;2022-10-15T10:24:41;16.40;99.90
4985;DHT22;2509;49.902;8.600;2022-10-15T10:27:45;16.40;99.90
4985;DHT22;2509;49.902;8.600;2022-10-15T10:30:51;16.40;99.90
4985;DHT22;2509;49.902;8.600;2022-10-15T10:33:53;16.30;99.90
4985;DHT22;2509;49.902;8.600;2022-10-15T10:36:55;16.30;99.90
4985;DHT22;2509;49.902;8.600;2022-10-15T10:39:59;16.30;99.90
4985;DHT22;2509;49.902;8.600;2022-10-15T10:43:28;16.30;99.90
4985;DHT22;2509;49.902;8.600;2022-10-15T10:53:22;16.20;99.90
4985;DHT22;2509;49.902;8.600;2022-10-15T10:56:27;16.30;99.90
4985;DHT22;2509;49.902;8.600;2022-10-15T10:59:36;16.30;99.90
4985;DHT22;2509;49.902;8.600;2022-10-15T11:02:40;16.50;99.90
4985;DHT22;2509;49.902;8.600;2022-10-15T11:05:49;16.50;99.90
4985;DHT22;2509;49.902;8.600;2022-10-15T11:12:42;16.70;99.90
4985;DHT22;2509;49.902;8.600;2022-10-15T11:15:54;16.70;99.90
4985;DHT22;2509;49.902;8.600;2022-10-15T11:19:17;16.80;99.90
4985;DHT22;2509;49.902;8.600;2022-10-15T11:22:34;17.10;99.90
4985;DHT22;2509;49.902;8.600;2022-10-15T11:25:45;17.20;99.90
4985;DHT22;2509;49.902;8.600;2022-10-15T11:28:58;17.20;99.90
4985;DHT22;2509;49.902;8.600;2022-10-15T11:32:16;17.20;99.90
4985;DHT22;2509;49.902;8.600;2022-10-15T11:35:32;17.20;99.90
4985;DHT22;2509;49.902;8.600;2022-10-15T11:38:40;17.20;99.90
4985;DHT22;2509;49.902;8.600;2022-10-15T11:41:48;17.10;99.90
4985;DHT22;2509;49.902;8.600;2022-10-15T11:45:16;17.10;99.90
4985;DHT22;2509;49.902;8.600;2022-10-15T11:48:32;17.10;99.90
4985;DHT22;2509;49.902;8.600;2022-10-15T11:51:48;17.10;99.90
4985;DHT22;2509;49.902;8.600;2022-10-15T11:55:01;17.10;99.90
4985;DHT22;2509;49.902;8.600;2022-10-15T11:58:11;17.10;99.90
4985;DHT22;2509;49.902;8.600;2022-10-15T12:01:18;17.10;99.90
4985;DHT22;2509;49.902;8.600;2022-10-15T12:04:29;17.20;99.90
4985;DHT22;2509;49.902;8.600;2022-10-15T12:07:38;17.20;99.90
4985;DHT22;2509;49.902;8.600;2022-10-15T12:10:58;17.30;99.90
4985;DHT22;2509;49.902;8.600;2022-10-15T12:14:17;17.30;99.90
4985;DHT22;2509;49.902;8.600;2022-10-15T12:17:34;17.30;99.90
4985;DHT22;2509;49.902;8.600;2022-10-15T12:20:40;17.30;99.90
4985;DHT22;2509;49.902;8.600;2022-10-15T12:23:42;17.30;99.90
4985;DHT22;2509;49.902;8.600;2022-10-15T12:26:46;17.30;99.90
4985;DHT22;2509;49.902;8.600;2022-10-15T12:29:51;17.30;99.90
4985;DHT22;2509;49.902;8.600;2022-10-15T12:33:23;17.30;99.90
4985;DHT22;2509;49.902;8.600;2022-10-15T12:36:28;17.30;99.90
4985;DHT22;2509;49.902;8.600;2022-10-15T12:39:31;17.40;99.90
4985;DHT22;2509;49.902;8.600;2022-10-15T12:42:35;17.40;99.90
4985;DHT22;2509;49.902;8.600;2022-10-15T12:45:39;17.40;99.90
4985;DHT22;2509;49.902;8.600;2022-10-15T12:48:43;17.50;99.90
4985;DHT22;2509;49.902;8.600;2022-10-15T12:51:46;17.50;99.90
4985;DHT22;2509;49.902;8.600;2022-10-15T12:54:50;17.50;99.90
4985;DHT22;2509;49.902;8.600;2022-10-15T12:57:56;17.50;99.90
4985;DHT22;2509;49.902;8.600;2022-10-15T13:01:03;17.50;99.90
4985;DHT22;2509;49.902;8.600;2022-10-15T13:04:07;17.50;99.90
4985;DHT22;2509;49.902;8.600;2022-10-15T13:07:13;17.40;99.90
4985;DHT22;2509;49.902;8.600;2022-10-15T13:10:19;17.50;99.90
4985;DHT22;2509;49.902;8.600;2022-10-15T13:13:25;17.50;99.90
4985;DHT22;2509;49.902;8.600;2022-10-15T13:16:28;17.50;99.90
4985;DHT22;2509;49.902;8.600;2022-10-15T13:19:33;17.50;99.90
4985;DHT22;2509;49.902;8.600;2022-10-15T13:22:37;17.50;99.90
4985;DHT22;2509;49.902;8.600;2022-10-15T13:25:38;17.50;99.90
4985;DHT22;2509;49.902;8.600;2022-10-15T13:28:41;17.50;99.90
4985;DHT22;2509;49.902;8.600;2022-10-15T13:31:43;17.50;99.90
4985;DHT22;2509;49.902;8.600;2022-10-15T13:34:45;17.50;99.90
4985;DHT22;2509;49.902;8.600;2022-10-15T13:37:48;17.50;99.90
4985;DHT22;2509;49.902;8.600;2022-10-15T13:40:52;17.50;99.90
4985;DHT22;2509;49.902;8.600;2022-10-15T13:43:54;17.50;99.90
4985;DHT22;2509;49.902;8.600;2022-10-15T13:46:58;17.50;99.90
4985;DHT22;2509;49.902;8.600;2022-10-15T13:50:17;17.50;99.90
4985;DHT22;2509;49.902;8.600;2022-10-15T13:53:25;17.40;99.90
4985;DHT22;2509;49.902;8.600;2022-10-15T13:56:30;17.50;99.90
4985;DHT22;2509;49.902;8.600;2022-10-15T13:59:32;17.50;99.90
4985;DHT22;2509;49.902;8.600;2022-10-15T14:02:34;17.50;99.90
4985;DHT22;2509;49.902;8.600;2022-10-15T14:05:36;17.50;99.90
4985;DHT22;2509;49.902;8.600;2022-10-15T14:08:39;17.50;99.90
4985;DHT22;2509;49.902;8.600;2022-10-15T14:11:40;17.50;99.90
4985;DHT22;2509;49.902;8.600;2022-10-15T14:14:44;17.50;99.90
4985;DHT22;2509;49.902;8.600;2022-10-15T14:17:48;17.50;99.90
4985;DHT22;2509;49.902;8.600;2022-10-15T14:20:51;17.50;99.90
4985;DHT22;2509;49.902;8.600;2022-10-15T14:24:02;17.40;99.90
4985;DHT22;2509;49.902;8.600;2022-10-15T14:27:06;17.40;99.90
4985;DHT22;2509;49.902;8.600;2022-10-15T14:30:19;17.40;99.90
4985;DHT22;2509;49.902;8.600;2022-10-15T14:33:40;17.30;99.90
4985;DHT22;2509;49.902;8.600;2022-10-15T14:36:42;17.40;99.90
4985;DHT22;2509;49.902;8.600;2022-10-15T14:39:46;17.40;99.90
4985;DHT22;2509;49.902;8.600;2022-10-15T14:43:01;17.40;99.90
4985;DHT22;2509;49.902;8.600;2022-10-15T14:46:04;17.40;99.90
4985;DHT22;2509;49.902;8.600;2022-10-15T14:49:16;17.50;99.90
4985;DHT22;2509;49.902;8.600;2022-10-15T14:52:19;17.60;99.90
4985;DHT22;2509;49.902;8.600;2022-10-15T14:55:31;17.70;99.90
4985;DHT22;2509;49.902;8.600;2022-10-15T14:58:37;17.70;99.90
4985;DHT22;2509;49.902;8.600;2022-10-15T15:01:39;17.70;99.90
4985;DHT22;2509;49.902;8.600;2022-10-15T15:04:43;17.70;99.90
4985;DHT22;2509;49.902;8.600;2022-10-15T15:07:45;17.70;99.90
4985;DHT22;2509;49.902;8.600;2022-10-15T15:10:50;17.70;99.90
4985;DHT22;2509;49.902;8.600;2022-10-15T15:13:53;17.70;99.90
4985;DHT22;2509;49.902;8.600;2022-10-15T15:16:55;17.70;99.90
4985;DHT22;2509;49.902;8.600;2022-10-15T15:19:56;17.70;99.90
4985;DHT22;2509;49.902;8.600;2022-10-15T15:22:58;17.60;99.90
4985;DHT22;2509;49.902;8.600;2022-10-15T15:26:01;17.60;99.90
4985;DHT22;2509;49.902;8.600;2022-10-15T15:29:08;17.60;99.90
4985;DHT22;2509;49.902;8.600;2022-10-15T15:32:11;17.60;99.90
4985;DHT22;2509;49.902;8.600;2022-10-15T15:35:20;17.60;99.90
4985;DHT22;2509;49.902;8.600;2022-10-15T15:38:23;17.50;99.90
4985;DHT22;2509;49.902;8.600;2022-10-15T15:41:31;17.50;99.90
4985;DHT22;2509;49.902;8.600;2022-10-15T15:44:33;17.40;99.90
4985;DHT22;2509;49.902;8.600;2022-10-15T15:47:35;17.40;99.90
4985;DHT22;2509;49.902;8.600;2022-10-15T15:50:36;17.40;99.90
4985;DHT22;2509;49.902;8.600;2022-10-15T15:53:38;17.40;99.90
4985;DHT22;2509;49.902;8.600;2022-10-15T15:56:41;17.30;99.90
4985;DHT22;2509;49.902;8.600;2022-10-15T15:59:43;17.30;99.90
4985;DHT22;2509;49.902;8.600;2022-10-15T16:02:45;17.30;99.90
4985;DHT22;2509;49.902;8.600;2022-10-15T16:05:47;17.30;99.90
4985;DHT22;2509;49.902;8.600;2022-10-15T16:08:50;17.20;99.90
4985;DHT22;2509;49.902;8.600;2022-10-15T16:11:54;17.20;99.90
4985;DHT22;2509;49.902;8.600;2022-10-15T16:14:56;17.10;99.90
4985;DHT22;2509;49.902;8.600;2022-10-15T16:17:58;17.10;99.90
4985;DHT22;2509;49.902;8.600;2022-10-15T16:21:00;17.00;99.90
4985;DHT22;2509;49.902;8.600;2022-10-15T16:24:02;17.00;99.90
4985;DHT22;2509;49.902;8.600;2022-10-15T16:27:05;17.00;99.90
4985;DHT22;2509;49.902;8.600;2022-10-15T16:30:07;17.00;99.90
4985;DHT22;2509;49.902;8.600;2022-10-15T16:33:09;16.90;99.90
4985;DHT22;2509;49.902;8.600;2022-10-15T16:36:11;16.90;99.90
4985;DHT22;2509;49.902;8.600;2022-10-15T16:39:13;16.90;99.90
4985;DHT22;2509;49.902;8.600;2022-10-15T16:42:16;16.90;99.90
4985;DHT22;2509;49.902;8.600;2022-10-15T16:45:17;16.80;99.90
4985;DHT22;2509;49.902;8.600;2022-10-15T16:48:19;16.80;99.90
4985;DHT22;2509;49.902;8.600;2022-10-15T16:51:22;16.80;99.90
4985;DHT22;2509;49.902;8.600;2022-10-15T16:54:24;16.80;99.90
4985;DHT22;2509;49.902;8.600;2022-10-15T16:57:27;16.70;99.90
4985;DHT22;2509;49.902;8.600;2022-10-15T17:00:29;16.70;99.90
4985;DHT22;2509;49.902;8.600;2022-10-15T17:03:32;16.70;99.90
4985;DHT22;2509;49.902;8.600;2022-10-15T17:06:33;16.70;99.90
4985;DHT22;2509;49.902;8.600;2022-10-15T17:09:35;16.70;99.90
4985;DHT22;2509;49.902;8.600;2022-10-15T17:12:38;16.70;99.90
4985;DHT22;2509;49.902;8.600;2022-10-15T17:15:40;16.70;99.90
4985;DHT22;2509;49.902;8.600;2022-10-15T17:18:42;16.70;99.90
4985;DHT22;2509;49.902;8.600;2022-10-15T17:21:44;16.70;99.90
4985;DHT22;2509;49.902;8.600;2022-10-15T17:24:48;16.70;99.90
4985;DHT22;2509;49.902;8.600;2022-10-15T17:27:51;16.70;99.90
4985;DHT22;2509;49.902;8.600;2022-10-15T17:30:52;16.70;99.90
4985;DHT22;2509;49.902;8.600;2022-10-15T17:33:55;16.70;99.90
4985;DHT22;2509;49.902;8.600;2022-10-15T17:36:57;16.70;99.90
4985;DHT22;2509;49.902;8.600;2022-10-15T17:39:59;16.70;99.90
4985;DHT22;2509;49.902;8.600;2022-10-15T17:43:02;16.70;99.90
4985;DHT22;2509;49.902;8.600;2022-10-15T17:46:05;16.70;99.90
4985;DHT22;2509;49.902;8.600;2022-10-15T17:49:08;16.70;99.90
4985;DHT22;2509;49.902;8.600;2022-10-15T17:52:10;16.70;99.90
4985;DHT22;2509;49.902;8.600;2022-10-15T17:55:12;16.70;99.90
4985;DHT22;2509;49.902;8.600;2022-10-15T17:58:15;16.70;99.90
4985;DHT22;2509;49.902;8.600;2022-10-15T18:01:19;16.70;99.90
4985;DHT22;2509;49.902;8.600;2022-10-15T18:04:22;16.70;99.90
4985;DHT22;2509;49.902;8.600;2022-10-15T18:07:24;16.70;99.90
4985;DHT22;2509;49.902;8.600;2022-10-15T18:10:26;16.70;99.90
4985;DHT22;2509;49.902;8.600;2022-10-15T18:13:30;16.70;99.90
4985;DHT22;2509;49.902;8.600;2022-10-15T18:16:32;16.70;99.90
4985;DHT22;2509;49.902;8.600;2022-10-15T18:19:33;16.70;99.90
4985;DHT22;2509;49.902;8.600;2022-10-15T18:22:35;16.70;99.90
4985;DHT22;2509;49.902;8.600;2022-10-15T18:25:37;16.70;99.90
4985;DHT22;2509;49.902;8.600;2022-10-15T18:28:42;16.70;99.90
4985;DHT22;2509;49.902;8.600;2022-10-15T18:31:44;16.70;99.90
4985;DHT22;2509;49.902;8.600;2022-10-15T18:34:46;16.70;99.90
4985;DHT22;2509;49.902;8.600;2022-10-15T18:37:48;16.60;99.90
4985;DHT22;2509;49.902;8.600;2022-10-15T18:40:50;16.60;99.90
4985;DHT22;2509;49.902;8.600;2022-10-15T18:43:55;16.60;99.90
4985;DHT22;2509;49.902;8.600;2022-10-15T18:46:57;16.60;99.90
4985;DHT22;2509;49.902;8.600;2022-10-15T18:49:59;16.60;99.90
4985;DHT22;2509;49.902;8.600;2022-10-15T18:53:00;16.50;99.90
4985;DHT22;2509;49.902;8.600;2022-10-15T18:56:05;16.50;99.90
4985;DHT22;2509;49.902;8.600;2022-10-15T18:59:08;16.40;99.90
4985;DHT22;2509;49.902;8.600;2022-10-15T19:02:10;16.40;99.90
4985;DHT22;2509;49.902;8.600;2022-10-15T19:05:12;16.30;99.90
4985;DHT22;2509;49.902;8.600;2022-10-15T19:08:14;16.20;99.90
4985;DHT22;2509;49.902;8.600;2022-10-15T19:11:16;16.20;99.90
4985;DHT22;2509;49.902;8.600;2022-10-15T19:14:20;16.20;99.90
4985;DHT22;2509;49.902;8.600;2022-10-15T19:17:22;16.20;99.90
4985;DHT22;2509;49.902;8.600;2022-10-15T19:20:24;16.10;99.90
4985;DHT22;2509;49.902;8.600;2022-10-15T19:23:26;16.10;99.90
4985;DHT22;2509;49.902;8.600;2022-10-15T19:26:28;16.10;99.90
4985;DHT22;2509;49.902;8.600;2022-10-15T19:29:31;16.10;99.90
4985;DHT22;2509;49.902;8.600;2022-10-15T19:32:33;16.10;99.90
4985;DHT22;2509;49.902;8.600;2022-10-15T19:35:38;16.10;99.90
4985;DHT22;2509;49.902;8.600;2022-10-15T19:38:40;16.10;99.90
4985;DHT22;2509;49.902;8.600;2022-10-15T19:41:43;16.10;99.90
4985;DHT22;2509;49.902;8.600;2022-10-15T19:44:47;16.00;99.90
4985;DHT22;2509;49.902;8.600;2022-10-15T19:47:48;16.00;99.90
4985;DHT22;2509;49.902;8.600;2022-10-15T19:50:50;16.00;99.90
4985;DHT22;2509;49.902;8.600;2022-10-15T19:53:52;16.00;99.90
4985;DHT22;2509;49.902;8.600;2022-10-15T19:56:55;16.00;99.90
4985;DHT22;2509;49.902;8.600;2022-10-15T19:59:58;16.00;99.90
4985;DHT22;2509;49.902;8.600;2022-10-15T20:03:01;16.00;99.90
4985;DHT22;2509;49.902;8.600;2022-10-15T20:06:05;16.10;99.90
4985;DHT22;2509;49.902;8.600;2022-10-15T20:09:07;16.10;99.90
4985;DHT22;2509;49.902;8.600;2022-10-15T20:12:09;16.10;99.90
4985;DHT22;2509;49.902;8.600;2022-10-15T20:15:12;16.10;99.90
4985;DHT22;2509;49.902;8.600;2022-10-15T20:18:15;16.10;99.90
4985;DHT22;2509;49.902;8.600;2022-10-15T20:21:16;16.10;99.90